Flight Track Log - Related Links

Times and Time Zones

All times are in EST time to prevent confusion due to time zone crossing. See the EJA941 flight status page for this flight to view local times or setup timezone preferences in your user account.

Time Position Orientation Groundspeed Altitude Reporting Facility
EST Latitude Longitude Course Direction KTS MPH feet Rate Location/Type
Fri 10:57:29 AM 38.8833 -77.4333 180° South 219 252 2,800  Level Potomac TRACON
Fri 10:58:29 AM 38.8167 -77.4333 180° South 252 290 4,900 2,350 Climbing Potomac TRACON
Fri 10:59:29 AM 38.7667 -77.4833 218° Southwest 253 291 7,500 2,900 Climbing Potomac TRACON
Fri 11:00:29 AM 38.7000 -77.5333 210° Southwest 265 305 10,700 2,350 Climbing Potomac TRACON
Fri 11:01:29 AM 38.6500 -77.6000 226° Southwest 296 341 12,200 1,243 Climbing Potomac TRACON
Fri 11:02:20 AM 38.5872 -77.6500 212° Southwest 315 362 13,000 1,568 Climbing Washington Center
Fri 11:03:20 AM 38.5172 -77.7197 218° Southwest 321 369 15,100 2,033 Climbing Washington Center
Fri 11:04:21 AM 38.4656 -77.8058 233° Southwest 313 360 17,100 1,736 Climbing Washington Center
Fri 11:05:21 AM 38.4181 -77.8972 236° Southwest 308 354 18,600 1,636 Climbing Washington Center
Fri 11:06:22 AM 38.3681 -77.9964 237° Southwest 320 368 20,400 1,714 Climbing Washington Center
Fri 11:07:20 AM 38.3139 -78.0978 236° Southwest 345 397 22,000 1,881 Climbing Washington Center
Fri 11:08:20 AM 38.2594 -78.2042 237° Southwest 357 411 24,100 2,132 Climbing Washington Center
Fri 11:09:21 AM 38.1986 -78.3131 235° Southwest 368 423 26,300 2,168 Climbing Washington Center
Fri 11:10:19 AM 38.1397 -78.4244 236° Southwest 374 430 28,400 1,966 Climbing Washington Center
Fri 11:11:20 AM 38.0975 -78.5417 245° Southwest 379 436 30,200 2,115 Climbing Washington Center
Fri 11:12:21 AM 38.0522 -78.6797 247° West 374 430 32,700 1,884 Climbing Washington Center
Fri 11:13:21 AM 38.0092 -78.8069 247° West 385 443 34,000 950 Climbing Washington Center
Fri 11:14:21 AM 37.9639 -78.9369 246° West 397 457 34,600 1,322 Climbing Washington Center
Fri 11:15:19 AM 37.9186 -79.0639 246° West 397 457 36,600 1,513 Climbing Washington Center
Fri 11:16:20 AM 37.8717 -79.1722 241° Southwest 397 457 37,600 694 Climbing Washington Center
Fri 11:17:20 AM 37.8139 -79.2931 239° Southwest 397 457 38,000 400 Climbing Washington Center
Fri 11:18:20 AM 37.7514 -79.4161 237° Southwest 410 472 38,400 843 Climbing Washington Center
Fri 11:19:21 AM 37.6828 -79.5436 236° Southwest 416 479 39,700 787 Climbing Washington Center
Fri 11:20:22 AM 37.6267 -79.6614 239° Southwest 406 467 40,000 151 Climbing Washington Center
Fri 11:21:20 AM 37.5731 -79.7658 237° Southwest 406 467 40,000  Level Washington Center
Fri 11:22:20 AM 37.5144 -79.8858 238° Southwest 406 467 40,000  Level Washington Center
Fri 11:23:21 AM 37.4539 -80.0053 237° Southwest 411 473 40,000  Level Washington Center
Fri 11:24:39 AM 37.3731 -80.1583 236° Southwest 415 478 40,000  Level Atlanta Center
Fri 11:25:39 AM 37.3103 -80.2789 237° Southwest 410 472 40,000  Level Atlanta Center
Fri 11:26:39 AM 37.2511 -80.3939 237° Southwest 405 466 40,000  Level Atlanta Center
Fri 11:27:39 AM 37.1839 -80.5219 237° Southwest 405 466 40,000  Level Atlanta Center
Fri 11:28:39 AM 37.1225 -80.6392 237° Southwest 405 466 40,000  Level Atlanta Center
Fri 11:29:39 AM 37.0675 -80.7586 240° Southwest 405 466 40,000  Level Atlanta Center
Fri 11:30:39 AM 37.0228 -80.8803 245° Southwest 394 453 40,000  Level Atlanta Center
Fri 11:31:39 AM 36.9861 -80.9933 248° West 394 453 40,000  Level Atlanta Center
Fri 11:32:39 AM 36.9411 -81.1144 245° Southwest 389 448 40,000  Level Atlanta Center
Fri 11:33:39 AM 36.8958 -81.2383 245° Southwest 389 448 40,000  Level Atlanta Center
Fri 11:34:39 AM 36.8528 -81.3617 246° West 389 448 40,000  Level Atlanta Center
Fri 11:35:39 AM 36.8014 -81.4956 244° Southwest 389 448 40,000  Level Atlanta Center
Fri 11:36:39 AM 36.7683 -81.6081 250° West 384 442 40,000  Level Atlanta Center
Fri 11:37:39 AM 36.7206 -81.7311 244° Southwest 384 442 40,000  Level Atlanta Center
Fri 11:38:39 AM 36.6769 -81.8542 246° West 384 442 40,000  Level Atlanta Center
Fri 11:39:39 AM 36.6311 -81.9769 245° Southwest 389 448 40,000  Level Atlanta Center
Fri 11:40:39 AM 36.5853 -82.1022 246° West 389 448 40,000  Level Atlanta Center
Fri 11:41:39 AM 36.5372 -82.2275 245° Southwest 394 453 40,000  Level Atlanta Center
Fri 11:42:39 AM 36.4869 -82.3603 245° Southwest 394 453 40,000  Level Atlanta Center
Fri 11:43:39 AM 36.4300 -82.4803 239° Southwest 400 460 40,000  Level Atlanta Center
Fri 11:44:39 AM 36.3647 -82.5897 233° Southwest 405 466 40,000  Level Atlanta Center
Fri 11:45:39 AM 36.2972 -82.7017 233° Southwest 410 472 40,000  Level Atlanta Center
Fri 11:46:39 AM 36.2317 -82.8136 234° Southwest 410 472 40,000  Level Atlanta Center
Fri 11:47:39 AM 36.1639 -82.9278 234° Southwest 415 478 40,000  Level Atlanta Center
Fri 11:48:39 AM 36.0981 -83.0392 234° Southwest 410 472 40,000  Level Atlanta Center
Fri 11:49:39 AM 36.0322 -83.1503 234° Southwest 410 472 40,000  Level Atlanta Center
Fri 11:50:39 AM 35.9661 -83.2639 234° Southwest 410 472 40,000  Level Atlanta Center
Fri 11:51:39 AM 35.9000 -83.3747 234° Southwest 410 472 40,000  Level Atlanta Center
Fri 11:52:39 AM 35.8317 -83.4881 233° Southwest 415 478 40,000  Level Atlanta Center
Fri 11:53:39 AM 35.7633 -83.6011 233° Southwest 415 478 40,000  Level Atlanta Center
Fri 11:54:39 AM 35.6950 -83.7139 233° Southwest 415 478 40,000  Level Atlanta Center
Fri 11:55:39 AM 35.6347 -83.8114 233° Southwest 415 478 40,000  Level Atlanta Center
Fri 11:56:39 AM 35.5658 -83.9239 233° Southwest 415 478 40,000  Level Atlanta Center
Fri 11:57:39 AM 35.4972 -84.0389 234° Southwest 415 478 40,000  Level Atlanta Center
Fri 11:58:39 AM 35.4283 -84.1483 232° Southwest 415 478 40,000  Level Atlanta Center
Fri 11:59:39 AM 35.3592 -84.2628 233° Southwest 415 478 40,000  Level Atlanta Center
Fri 12:00:39 PM 35.2900 -84.3719 232° Southwest 415 478 40,000  Level Atlanta Center
Fri 12:01:39 PM 35.2208 -84.4861 233° Southwest 415 478 40,000  Level Atlanta Center
Fri 12:02:39 PM 35.1517 -84.6003 233° Southwest 420 483 40,000 100 Level Atlanta Center
Fri 12:03:39 PM 35.0822 -84.7114 233° Southwest 420 483 40,200 500 Climbing Atlanta Center
Fri 12:04:39 PM 35.0128 -84.8197 232° Southwest 415 478 41,000 850 Climbing Atlanta Center
Fri 12:05:39 PM 34.9431 -84.9256 231° Southwest 415 478 41,900 900 Climbing Atlanta Center
Fri 12:06:39 PM 34.8797 -85.0314 234° Southwest 410 472 42,800 550 Climbing Atlanta Center
Fri 12:07:39 PM 34.8119 -85.1367 232° Southwest 405 466 43,000 100 Climbing Atlanta Center
Fri 12:08:39 PM 34.7442 -85.2444 233° Southwest 410 472 43,000  Level Atlanta Center
Fri 12:09:39 PM 34.6764 -85.3522 233° Southwest 410 472 43,000  Level Atlanta Center
Fri 12:10:39 PM 34.6083 -85.4622 233° Southwest 410 472 43,000  Level Atlanta Center
Fri 12:11:39 PM 34.5361 -85.5719 231° Southwest 410 472 43,000  Level Atlanta Center
Fri 12:12:39 PM 34.4678 -85.6817 233° Southwest 410 472 43,000  Level Atlanta Center
Fri 12:13:39 PM 34.3997 -85.7883 232° Southwest 410 472 43,000  Level Atlanta Center
Fri 12:14:39 PM 34.3272 -85.8950 231° Southwest 415 478 43,000  Level Atlanta Center
Fri 12:15:39 PM 34.2567 -86.0017 231° Southwest 415 478 43,000  Level Atlanta Center
Fri 12:16:39 PM 34.1858 -86.1156 233° Southwest 415 478 43,000  Level Atlanta Center
Fri 12:17:39 PM 34.1150 -86.2217 231° Southwest 420 483 43,000  Level Atlanta Center
Fri 12:18:39 PM 34.0422 -86.3325 232° Southwest 420 483 43,000  Level Atlanta Center
Fri 12:19:39 PM 33.9692 -86.4433 232° Southwest 420 483 43,000  Level Atlanta Center
Fri 12:20:39 PM 33.8958 -86.5564 232° Southwest 420 483 43,000  Level Atlanta Center
Fri 12:21:39 PM 33.8247 -86.6619 231° Southwest 420 483 43,000  Level Atlanta Center
Fri 12:22:39 PM 33.7514 -86.7722 231° Southwest 420 483 43,000  Level Atlanta Center
Fri 12:23:39 PM 33.6800 -86.8797 231° Southwest 420 483 43,000  Level Atlanta Center
Fri 12:24:39 PM 33.6086 -86.9894 232° Southwest 420 483 43,000  Level Atlanta Center
Fri 12:25:39 PM 33.5372 -87.0992 232° Southwest 420 483 43,000  Level Atlanta Center
Fri 12:26:39 PM 33.4675 -87.2089 233° Southwest 420 483 43,000  Level Atlanta Center
Fri 12:28:53 PM 33.3464 -87.4731 241° Southwest 411 473 43,000  Level Memphis Center
Fri 12:29:55 PM 33.2914 -87.5939 241° Southwest 412 474 43,000  Level Memphis Center
Fri 12:30:57 PM 33.2358 -87.7133 241° Southwest 413 475 43,000  Level Memphis Center
Fri 12:31:59 PM 33.1683 -87.8583 241° Southwest 414 476 43,000  Level Memphis Center
Fri 12:33:01 PM 33.1128 -87.9789 241° Southwest 415 478 43,000  Level Memphis Center
Fri 12:34:03 PM 33.0558 -88.0983 240° Southwest 415 478 43,000  Level Memphis Center
Fri 12:35:05 PM 32.9975 -88.2250 241° Southwest 417 480 43,000  Level Memphis Center
Fri 12:36:07 PM 32.9411 -88.3439 241° Southwest 415 478 43,000  Level Memphis Center
Fri 12:37:08 PM 32.8844 -88.4625 240° Southwest 414 476 43,000 390 Level Memphis Center
Fri 12:38:10 PM 32.8297 -88.5792 241° Southwest 409 471 43,800 919 Climbing Memphis Center
Fri 12:39:12 PM 32.7658 -88.7142 241° Southwest 396 456 44,900 581 Climbing Memphis Center
Fri 12:40:14 PM 32.7125 -88.8239 240° Southwest 388 447 45,000 48 Climbing Memphis Center
Fri 12:41:16 PM 32.6597 -88.9350 241° Southwest 386 444 45,000  Level Memphis Center
Fri 12:42:18 PM 32.6056 -89.0472 240° Southwest 391 450 45,000  Level Memphis Center
Fri 12:43:20 PM 32.5514 -89.1589 240° Southwest 391 450 45,000  Level Memphis Center
Fri 12:44:22 PM 32.4967 -89.2719 240° Southwest 394 453 45,000  Level Memphis Center
Fri 12:45:24 PM 32.4422 -89.3853 240° Southwest 395 455 45,000  Level Memphis Center
Fri 12:46:25 PM 32.3761 -89.5206 240° Southwest 396 456 45,000  Level Memphis Center
Fri 12:47:27 PM 32.3208 -89.6331 240° Southwest 396 456 45,000  Level Memphis Center
Fri 12:48:29 PM 32.2658 -89.7456 240° Southwest 396 456 45,000  Level Memphis Center
Fri 12:49:31 PM 32.2100 -89.8578 240° Southwest 397 457 45,000  Level Memphis Center
Fri 12:50:33 PM 32.1556 -89.9694 240° Southwest 395 455 45,000  Level Memphis Center
Fri 12:51:35 PM 32.1006 -90.0811 240° Southwest 394 453 45,000  Level Memphis Center
Fri 12:52:37 PM 32.0347 -90.2144 240° Southwest 394 453 45,000  Level Memphis Center
Fri 12:53:39 PM 31.9794 -90.3253 240° Southwest 393 452 45,000  Level Memphis Center
Fri 12:54:25 PM 31.9350 -90.4164 240° Southwest 394 453 45,000  Level Houston Center
Fri 12:55:28 PM 31.8786 -90.5272 239° Southwest 395 455 45,000  Level Houston Center
Fri 12:56:30 PM 31.8233 -90.6369 239° Southwest 393 452 45,000  Level Houston Center
Fri 12:57:32 PM 31.7689 -90.7472 240° Southwest 393 452 45,000  Level Houston Center
Fri 12:58:34 PM 31.7125 -90.8561 239° Southwest 392 451 45,000  Level Houston Center
Fri 12:59:36 PM 31.6469 -90.9878 240° Southwest 391 450 45,000  Level Houston Center
Fri 01:00:38 PM 31.5903 -91.0975 239° Southwest 394 453 45,000  Level Houston Center
Fri 01:01:40 PM 31.5406 -91.1958 239° Southwest 392 451 45,000  Level Houston Center
Fri 01:02:43 PM 31.4733 -91.3272 239° Southwest 392 451 45,000  Level Houston Center
Fri 01:03:45 PM 31.4183 -91.4367 240° Southwest 391 450 45,000  Level Houston Center
Fri 01:04:47 PM 31.3628 -91.5450 239° Southwest 388 447 45,000  Level Houston Center
Fri 01:05:49 PM 31.3064 -91.6536 239° Southwest 390 449 45,000  Level Houston Center
Fri 01:06:51 PM 31.2503 -91.7619 239° Southwest 390 449 45,000  Level Houston Center
Fri 01:07:53 PM 31.1942 -91.8711 239° Southwest 390 449 45,000  Level Houston Center
Fri 01:08:56 PM 31.1267 -92.0022 239° Southwest 391 450 45,000  Level Houston Center
Fri 01:09:58 PM 31.0678 -92.1144 239° Southwest 392 451 45,000  Level Houston Center
Fri 01:11:00 PM 31.0117 -92.2242 239° Southwest 393 452 45,000  Level Houston Center
Fri 01:12:02 PM 30.9553 -92.3303 238° Southwest 392 451 45,000  Level Houston Center
Fri 01:13:04 PM 30.8978 -92.4400 239° Southwest 393 452 45,000  Level Houston Center
Fri 01:14:06 PM 30.8408 -92.5494 239° Southwest 394 453 45,000  Level Houston Center
Fri 01:15:09 PM 30.7839 -92.6575 238° Southwest 392 451 45,000  Level Houston Center
Fri 01:16:11 PM 30.7156 -92.7853 238° Southwest 391 450 45,000  Level Houston Center
Fri 01:17:13 PM 30.6575 -92.8931 238° Southwest 393 452 45,000  Level Houston Center
Fri 01:18:15 PM 30.6008 -93.0014 239° Southwest 394 453 45,000  Level Houston Center
Fri 01:19:17 PM 30.5422 -93.1094 238° Southwest 395 455 45,000  Level Houston Center
Fri 01:20:19 PM 30.4844 -93.2164 238° Southwest 393 452 45,000  Level Houston Center
Fri 01:21:22 PM 30.4272 -93.3247 239° Southwest 392 451 45,000  Level Houston Center
Fri 01:22:24 PM 30.3581 -93.4561 239° Southwest 392 451 45,000  Level Houston Center
Fri 01:23:26 PM 30.2992 -93.5644 238° Southwest 395 455 45,000  Level Houston Center
Fri 01:24:28 PM 30.2378 -93.6789 238° Southwest 391 450 45,000  Level Houston Center
Fri 01:25:30 PM 30.1803 -93.7856 238° Southwest 391 450 45,000  Level Houston Center
Fri 01:26:32 PM 30.1225 -93.8914 238° Southwest 390 449 45,000  Level Houston Center
Fri 01:27:35 PM 30.0650 -93.9981 238° Southwest 390 449 45,000 -192 Level Houston Center
Fri 01:28:37 PM 30.0069 -94.1031 237° Southwest 390 449 44,600 -1,065 Descending Houston Center
Fri 01:29:39 PM 29.9475 -94.2125 238° Southwest 400 460 42,800 -1,839 Descending Houston Center
Fri 01:30:41 PM 29.8833 -94.3267 237° Southwest 407 468 40,800 -2,129 Descending Houston Center
Fri 01:31:43 PM 29.8128 -94.4553 238° Southwest 399 459 38,400 -2,129 Descending Houston Center
Fri 01:32:45 PM 29.7486 -94.5722 238° Southwest 426 490 36,400 -1,968 Descending Houston Center
Fri 01:33:48 PM 29.6822 -94.6914 237° Southwest 440 506 34,300 -1,968 Descending Houston Center
Fri 01:34:50 PM 29.6147 -94.8106 237° Southwest 442 509 32,300 -2,032 Descending Houston Center
Fri 01:35:52 PM 29.5450 -94.9347 237° Southwest 454 522 30,100 -2,129 Descending Houston Center
Fri 01:36:54 PM 29.4742 -95.0614 237° Southwest 461 531 27,900 -1,984 Descending Houston Center
Fri 01:37:56 PM 29.4075 -95.1808 237° Southwest 438 504 26,000 -1,968 Descending Houston Center
Fri 01:38:59 PM 29.3294 -95.3186 237° Southwest 424 488 23,800 -1,968 Descending Houston Center
Fri 01:40:01 PM 29.2669 -95.4303 237° Southwest 418 481 21,900 -1,790 Descending Houston Center
Fri 01:41:03 PM 29.2058 -95.5378 237° Southwest 405 466 20,100 -1,597 Descending Houston Center
Fri 01:42:05 PM 29.1464 -95.6450 238° Southwest 401 461 18,600 -1,258 Descending Houston Center
Fri 01:43:07 PM 29.0831 -95.7533 236° Southwest 408 470 17,500 -774 Descending Houston Center
Fri 01:44:09 PM 29.0222 -95.8608 237° Southwest 405 466 17,000 -432 Descending Houston Center
Fri 01:45:12 PM 28.9511 -95.9836 237° Southwest 400 460 16,600 -1,392 Descending Houston Center
Fri 01:46:14 PM 28.8900 -96.0903 237° Southwest 400 460 14,100 -2,661 Descending Houston Center
Fri 01:47:16 PM 28.8494 -96.1944 246° West 373 429 11,100 -1,887 Descending Houston Center
Fri 01:48:18 PM 28.8428 -96.2914 266° West 319 367 10,200 -1,403 Descending Houston Center
Fri 01:49:20 PM 28.8372 -96.3747 266° West 276 318 8,200 -2,064 Descending Houston Center
Fri 01:50:23 PM 28.8317 -96.4703 266° West 257 296 5,900 -1,824 Descending Houston Center
Fri 01:51:25 PM 28.8269 -96.5439 266° West 241 277 4,400 -919 Descending Houston Center
Fri 01:52:27 PM 28.8231 -96.6142 266° West 230 265 4,000 -194 Descending Houston Center
Fri 01:53:29 PM 28.8194 -96.6636 265° West 190 219 4,000  Level Houston Center
Fri 01:54:31 PM 28.8156 -96.7169 265° West 170 196 4,000  Level Houston Center
Fri 01:55:33 PM 28.8125 -96.7719 266° West 170 196 4,000 -960 Level Houston Center
Fri 01:56:36 PM 28.7683 -96.7769 186° South 154 177 2,000 -1,152 Descending Houston Center
Fri 01:57:38 PM 28.7414 -96.7531 142° Southeast 137 158 1,600 -387 Descending Houston Center

Login

Don't have an account? Register now (free) for customized features, flight alerts, and more!